createdAt,value
2018-07-14T00:01:33.481Z,20.30
2018-07-14T00:04:02.341Z,20.30
2018-07-14T00:06:34.940Z,20.30
2018-07-14T00:09:04.776Z,20.20
2018-07-14T00:11:37.343Z,20.20
2018-07-14T00:14:06.097Z,20.20
2018-07-14T00:16:42.256Z,20.20
2018-07-14T00:19:10.959Z,20.20
2018-07-14T00:21:41.290Z,20.10
2018-07-14T00:24:10.670Z,20.10
2018-07-14T00:26:47.241Z,20.10
2018-07-14T00:29:16.273Z,20.10
2018-07-14T00:31:47.166Z,20.10
2018-07-14T00:34:16.433Z,20.10
2018-07-14T00:36:52.402Z,20.00
2018-07-14T00:39:21.176Z,20.00
2018-07-14T00:41:53.253Z,19.90
2018-07-14T00:44:22.278Z,19.90
2018-07-14T00:46:58.141Z,19.80
2018-07-14T00:49:26.913Z,19.80
2018-07-14T00:51:57.662Z,19.80
2018-07-14T00:54:26.349Z,19.70
2018-07-14T00:57:03.266Z,19.70
2018-07-14T00:59:31.985Z,19.70
2018-07-14T01:02:03.724Z,19.70
2018-07-14T01:04:32.685Z,19.70
2018-07-14T01:07:09.044Z,19.60
2018-07-14T01:09:37.768Z,19.70
2018-07-14T01:12:10.204Z,19.60
2018-07-14T01:14:38.925Z,19.60
2018-07-14T01:17:12.807Z,19.60
2018-07-14T01:19:41.603Z,19.60
2018-07-14T01:22:17.726Z,19.60
2018-07-14T01:24:46.797Z,19.50
2018-07-14T01:27:17.133Z,19.60
2018-07-14T01:29:45.814Z,19.50
2018-07-14T01:32:22.378Z,19.50
2018-07-14T01:34:51.046Z,19.50
2018-07-14T01:37:23.333Z,19.50
2018-07-14T01:39:52.301Z,19.50
2018-07-14T01:42:24.592Z,19.50
2018-07-14T01:44:53.558Z,19.40
2018-07-14T01:47:26.848Z,19.40
2018-07-14T01:49:55.522Z,19.40
2018-07-14T01:52:31.518Z,19.30
2018-07-14T01:55:00.216Z,19.30
2018-07-14T01:57:31.218Z,19.30
2018-07-14T02:00:00.193Z,19.30
2018-07-14T02:02:36.444Z,19.20
2018-07-14T02:05:05.421Z,19.20
2018-07-14T02:07:36.111Z,19.10
2018-07-14T02:10:04.944Z,19.10
2018-07-14T02:12:41.271Z,19.10
2018-07-14T02:15:10.011Z,19.10
2018-07-14T02:17:41.579Z,19.10
2018-07-14T02:20:10.804Z,19.10
2018-07-14T02:22:46.887Z,19.10
2018-07-14T02:25:15.604Z,19.10
2018-07-14T02:27:47.430Z,19.00
2018-07-14T02:30:16.347Z,19.00
2018-07-14T02:32:49.041Z,19.00
2018-07-14T02:35:17.721Z,19.00
2018-07-14T02:37:50.949Z,19.00
2018-07-14T02:40:19.668Z,19.00
2018-07-14T02:42:52.775Z,18.90
2018-07-14T02:45:21.775Z,18.90
2018-07-14T02:47:55.428Z,18.90
2018-07-14T02:50:24.350Z,18.80
2018-07-14T02:53:01.144Z,18.80
2018-07-14T02:55:29.859Z,18.80
2018-07-14T02:58:06.114Z,18.80
2018-07-14T03:00:34.900Z,18.70
2018-07-14T03:03:06.595Z,18.70
2018-07-14T03:05:35.543Z,18.70
2018-07-14T03:08:11.155Z,18.70
2018-07-14T03:10:39.831Z,18.70
2018-07-14T03:13:15.993Z,18.70
2018-07-14T03:15:44.735Z,18.70
2018-07-14T03:18:17.260Z,18.60
2018-07-14T03:20:45.926Z,18.60
2018-07-14T03:25:47.055Z,18.60
2018-07-14T03:28:22.263Z,18.50
2018-07-14T03:30:51.269Z,18.50
2018-07-14T03:33:27.376Z,18.50
2018-07-14T03:35:56.191Z,18.50
2018-07-14T03:38:28.091Z,18.50
2018-07-14T03:40:56.882Z,18.50
2018-07-14T03:43:29.211Z,18.40
2018-07-14T03:45:57.968Z,18.40
2018-07-14T03:48:34.252Z,18.40
2018-07-14T03:51:03.268Z,18.40
2018-07-14T03:53:35.708Z,18.40
2018-07-14T03:56:04.961Z,18.40
2018-07-14T03:58:37.804Z,18.30
2018-07-14T04:01:06.680Z,18.30
2018-07-14T04:03:42.847Z,18.30
2018-07-14T04:06:12.860Z,18.30
2018-07-14T04:08:43.448Z,18.20
2018-07-14T04:11:12.590Z,18.20
2018-07-14T04:13:46.395Z,18.20
2018-07-14T04:16:15.204Z,18.20
2018-07-14T04:18:51.469Z,18.20
2018-07-14T04:21:20.158Z,18.20
2018-07-14T04:23:51.209Z,18.20
2018-07-14T04:26:19.921Z,18.20
2018-07-14T04:28:53.812Z,18.20
2018-07-14T04:31:22.501Z,18.10
2018-07-14T04:33:56.349Z,18.10
2018-07-14T04:36:25.428Z,18.10
2018-07-14T04:41:29.495Z,18.20
2018-07-14T04:44:05.696Z,18.20
2018-07-14T04:46:34.376Z,18.20
2018-07-14T04:49:06.340Z,18.20
2018-07-14T04:51:35.328Z,18.20
2018-07-14T04:54:11.690Z,18.20
2018-07-14T04:56:40.393Z,18.20
2018-07-14T04:59:12.312Z,18.30
2018-07-14T05:01:41.907Z,18.30
2018-07-14T05:04:18.034Z,18.30
2018-07-14T05:06:46.814Z,18.20
2018-07-14T05:09:18.623Z,18.20
2018-07-14T05:11:47.521Z,18.20
2018-07-14T05:14:20.976Z,18.30
2018-07-14T05:16:49.729Z,18.20
2018-07-14T05:19:25.499Z,18.20
2018-07-14T05:24:26.312Z,18.30
2018-07-14T05:26:55.108Z,18.30
2018-07-14T05:29:29.024Z,18.40
2018-07-14T05:31:57.813Z,18.40
2018-07-14T05:34:33.706Z,18.30
2018-07-14T05:37:02.645Z,18.40
2018-07-14T05:39:33.266Z,18.40
2018-07-14T05:42:01.961Z,18.40
2018-07-14T05:44:35.616Z,18.40
2018-07-14T05:47:04.322Z,18.40
2018-07-14T05:49:42.160Z,18.40
2018-07-14T05:52:11.019Z,18.40
2018-07-14T05:54:41.325Z,18.50
2018-07-14T05:57:10.233Z,18.50
2018-07-14T05:59:43.517Z,18.50
2018-07-14T06:02:12.342Z,18.50
2018-07-14T06:04:49.464Z,18.50
2018-07-14T06:07:18.233Z,18.50
2018-07-14T06:12:17.501Z,18.50
2018-07-14T06:14:53.775Z,18.50
2018-07-14T06:17:22.705Z,18.60
2018-07-14T06:19:55.798Z,18.70
2018-07-14T06:22:24.768Z,18.80
2018-07-14T06:24:56.773Z,18.80
2018-07-14T06:27:26.576Z,18.80
2018-07-14T06:32:29.014Z,18.90
2018-07-14T06:35:06.103Z,19.00
2018-07-14T06:37:35.030Z,19.10
2018-07-14T06:40:07.371Z,19.20
2018-07-14T06:42:36.096Z,19.20
2018-07-14T06:45:08.615Z,19.30
2018-07-14T06:47:37.535Z,19.40
2018-07-14T06:50:12.658Z,19.40
2018-07-14T06:52:41.636Z,19.40
2018-07-14T06:55:17.471Z,19.50
2018-07-14T06:57:46.204Z,19.60
2018-07-14T07:00:18.065Z,19.60
2018-07-14T07:02:48.484Z,19.70
2018-07-14T07:05:20.602Z,19.80
2018-07-14T07:07:49.385Z,19.90
2018-07-14T07:10:27.267Z,20.00
2018-07-14T07:12:56.372Z,20.00
2018-07-14T07:15:25.269Z,20.10
2018-07-14T07:17:54.177Z,20.20
2018-07-14T07:20:30.495Z,20.20
2018-07-14T07:22:59.217Z,20.30
2018-07-14T07:25:31.782Z,20.40
2018-07-14T07:28:01.080Z,20.50
2018-07-14T07:30:33.312Z,20.50
2018-07-14T07:33:03.186Z,20.70
2018-07-14T07:35:35.543Z,20.80
2018-07-14T07:38:04.299Z,20.80
2018-07-14T07:40:40.157Z,20.90
2018-07-14T07:43:09.919Z,20.90
2018-07-14T07:45:40.212Z,21.00
2018-07-14T07:48:09.237Z,21.00
2018-07-14T07:50:46.294Z,21.10
2018-07-14T07:53:16.021Z,21.20
2018-07-14T07:55:45.077Z,21.30
2018-07-14T07:58:14.177Z,21.30
2018-07-14T08:00:48.398Z,21.40
2018-07-14T08:03:17.957Z,21.40
2018-07-14T08:05:50.632Z,21.50
2018-07-14T08:08:19.401Z,21.50
2018-07-14T08:10:55.181Z,21.50
2018-07-14T08:15:56.373Z,21.60
2018-07-14T08:18:26.205Z,21.70
2018-07-14T08:20:58.176Z,21.70
2018-07-14T08:23:28.122Z,21.90
2018-07-14T08:26:01.692Z,21.90
2018-07-14T08:28:30.484Z,21.90
2018-07-14T08:31:13.982Z,22.00
2018-07-14T08:33:42.941Z,22.00
2018-07-14T08:36:15.687Z,22.10
2018-07-14T08:38:48.383Z,22.30
2018-07-14T08:41:18.715Z,22.30
2018-07-14T08:43:48.199Z,22.40
2018-07-14T08:46:18.185Z,22.50
2018-07-14T08:49:35.176Z,22.60
2018-07-14T08:52:04.587Z,22.70
2018-07-14T08:54:35.944Z,22.90
2018-07-14T08:57:05.201Z,23.00
2018-07-14T08:59:34.493Z,23.10
2018-07-14T09:04:32.556Z,23.30
2018-07-14T09:07:02.171Z,23.50
2018-07-14T09:09:33.672Z,23.70
2018-07-14T09:12:03.655Z,23.80
2018-07-14T09:14:33.142Z,24.00
2018-07-14T09:17:02.069Z,24.10
2018-07-14T09:19:31.022Z,24.30
2018-07-14T09:22:00.543Z,24.50
2018-07-14T09:24:32.656Z,24.70
2018-07-14T09:27:02.431Z,25.00
2018-07-14T09:29:39.519Z,25.30
2018-07-14T09:32:11.421Z,25.60
2018-07-14T09:34:41.209Z,26.00
2018-07-14T09:37:10.454Z,26.30
2018-07-14T09:39:41.154Z,26.50
2018-07-14T09:42:10.183Z,26.80
2018-07-14T09:44:46.575Z,27.10
2018-07-14T09:47:15.343Z,27.30
2018-07-14T09:49:50.324Z,27.60
2018-07-14T09:52:19.673Z,27.80
2018-07-14T09:54:53.793Z,27.90
2018-07-14T09:57:23.641Z,28.10
2018-07-14T09:59:55.084Z,28.10
2018-07-14T10:02:35.189Z,28.30
2018-07-14T10:05:06.196Z,28.30
2018-07-14T10:07:36.042Z,28.50
2018-07-14T10:10:08.383Z,28.60
2018-07-14T10:12:40.531Z,28.80
2018-07-14T10:15:11.661Z,29.00
2018-07-14T10:17:41.491Z,29.20
2018-07-14T10:20:12.618Z,29.40
2018-07-14T10:22:42.700Z,29.40
2018-07-14T10:25:13.453Z,29.30
2018-07-14T10:27:45.143Z,29.40
2018-07-14T10:30:15.996Z,29.50
2018-07-14T10:32:46.067Z,29.50
2018-07-14T10:35:23.356Z,29.70
2018-07-14T10:37:53.399Z,29.60
2018-07-14T10:40:23.532Z,29.80
2018-07-14T10:42:53.605Z,30.00
2018-07-14T10:45:24.004Z,30.20
2018-07-14T10:47:55.643Z,30.40
2018-07-14T10:50:26.119Z,30.40
2018-07-14T10:53:00.587Z,30.50
2018-07-14T10:55:33.744Z,30.70
2018-07-14T10:58:03.763Z,30.80
2018-07-14T11:00:35.633Z,30.80
2018-07-14T11:03:05.654Z,31.00
2018-07-14T11:05:36.191Z,31.20
2018-07-14T11:08:05.648Z,31.40
2018-07-14T11:10:35.439Z,31.50
2018-07-14T11:13:05.399Z,31.50
2018-07-14T11:15:36.114Z,31.60
2018-07-14T11:18:06.188Z,31.60
2018-07-14T11:20:37.260Z,31.60
2018-07-14T11:23:08.241Z,31.60
2018-07-14T11:25:41.510Z,31.40
2018-07-14T11:28:12.911Z,31.30
2018-07-14T11:30:44.083Z,31.20
2018-07-14T11:33:14.300Z,31.20
2018-07-14T11:35:43.183Z,31.30
2018-07-14T11:38:12.277Z,31.50
2018-07-14T11:40:44.753Z,31.60
2018-07-14T11:43:13.785Z,31.70
2018-07-14T11:45:55.196Z,31.80
2018-07-14T11:48:24.010Z,31.70
2018-07-14T11:50:53.087Z,31.70
2018-07-14T11:53:23.723Z,31.80
2018-07-14T11:55:53.274Z,32.00
2018-07-14T11:58:22.571Z,32.10
2018-07-14T12:01:00.427Z,32.20
2018-07-14T12:03:30.335Z,32.20
2018-07-14T12:06:01.170Z,32.10
2018-07-14T12:08:30.702Z,31.80
2018-07-14T12:11:03.894Z,31.60
2018-07-14T12:13:33.254Z,31.80
2018-07-14T12:16:10.204Z,32.00
2018-07-14T12:18:41.319Z,31.90
2018-07-14T12:21:13.936Z,31.60
2018-07-14T12:23:47.715Z,31.20
2018-07-14T12:26:17.152Z,30.70
2018-07-14T12:28:46.611Z,30.40
2018-07-14T12:31:15.853Z,30.30
2018-07-14T12:33:45.196Z,30.30
2018-07-14T12:36:17.180Z,30.50
2018-07-14T12:38:47.334Z,30.70
2018-07-14T12:41:18.693Z,31.10
2018-07-14T12:43:48.304Z,31.30
2018-07-14T12:46:25.029Z,31.20
2018-07-14T12:48:56.949Z,31.20
2018-07-14T12:51:27.713Z,31.10
2018-07-14T12:53:57.696Z,31.00
2018-07-14T12:56:29.556Z,31.00
2018-07-14T12:59:01.265Z,31.10
2018-07-14T13:01:34.492Z,31.10
2018-07-14T13:04:10.108Z,30.80
2018-07-14T13:06:46.680Z,30.70
2018-07-14T13:09:18.354Z,30.90
2018-07-14T13:11:52.617Z,31.00
2018-07-14T13:14:22.183Z,31.00
2018-07-14T13:16:51.615Z,31.30
2018-07-14T13:19:21.039Z,31.30
2018-07-14T13:21:54.177Z,31.10
2018-07-14T13:24:23.648Z,31.20
2018-07-14T13:26:55.770Z,31.20
2018-07-14T13:29:25.711Z,31.10
2018-07-14T13:34:25.058Z,31.10
2018-07-14T13:36:54.656Z,31.30
2018-07-14T13:39:23.934Z,31.30
2018-07-14T13:41:54.524Z,31.40
2018-07-14T13:44:23.273Z,31.50
2018-07-14T13:49:27.678Z,31.40
2018-07-14T13:51:59.059Z,31.40
2018-07-14T13:54:29.763Z,31.30
2018-07-14T13:56:59.346Z,31.20
2018-07-14T13:59:30.177Z,31.30
2018-07-14T14:02:02.961Z,31.50
2018-07-14T14:04:37.838Z,31.60
2018-07-14T14:07:08.680Z,31.70
2018-07-14T14:09:37.487Z,31.80
2018-07-14T14:12:07.573Z,31.80
2018-07-14T14:14:37.172Z,31.80
2018-07-14T14:17:08.917Z,31.70
2018-07-14T14:19:39.340Z,31.70
2018-07-14T14:22:13.551Z,31.50
2018-07-14T14:24:43.176Z,31.50
2018-07-14T14:27:15.497Z,31.30
2018-07-14T14:29:46.067Z,31.30
2018-07-14T14:32:16.178Z,31.20
2018-07-14T14:34:47.088Z,31.20
2018-07-14T14:37:25.396Z,31.20
2018-07-14T14:39:55.172Z,31.20
2018-07-14T14:42:24.338Z,31.30
2018-07-14T14:44:53.889Z,31.10
2018-07-14T14:47:24.710Z,31.00
2018-07-14T14:49:56.274Z,31.00
2018-07-14T14:52:30.068Z,31.00
2018-07-14T14:55:01.300Z,31.00
2018-07-14T14:57:31.037Z,30.90
2018-07-14T15:00:00.319Z,31.00
2018-07-14T15:02:34.214Z,31.00
2018-07-14T15:05:04.264Z,30.90
2018-07-14T15:07:35.512Z,30.80
2018-07-14T15:10:05.082Z,30.70
2018-07-14T15:12:39.677Z,30.70
2018-07-14T15:15:10.158Z,30.60
2018-07-14T15:17:40.641Z,30.50
2018-07-14T15:20:11.673Z,30.30
2018-07-14T15:22:45.903Z,30.20
2018-07-14T15:25:17.225Z,30.30
2018-07-14T15:27:48.198Z,30.30
2018-07-14T15:30:18.551Z,30.20
2018-07-14T15:32:48.201Z,30.10
2018-07-14T15:35:17.653Z,30.00
2018-07-14T15:37:53.908Z,29.80
2018-07-14T15:40:24.086Z,29.70
2018-07-14T15:42:54.684Z,29.70
2018-07-14T15:45:25.710Z,29.80
2018-07-14T15:47:58.766Z,29.90
2018-07-14T15:50:28.371Z,30.00
2018-07-14T15:53:01.189Z,29.90
2018-07-14T15:55:31.094Z,29.70
2018-07-14T15:58:04.571Z,29.70
2018-07-14T16:00:33.676Z,29.60
2018-07-14T16:03:05.645Z,29.70
2018-07-14T16:05:37.077Z,29.70
2018-07-14T16:08:12.569Z,29.60
2018-07-14T16:10:41.374Z,29.50
2018-07-14T16:13:14.172Z,29.40
2018-07-14T16:15:42.945Z,29.40
2018-07-14T16:18:16.456Z,29.20
2018-07-14T16:20:47.195Z,29.20
2018-07-14T16:23:16.613Z,29.10
2018-07-14T16:25:46.205Z,29.00
2018-07-14T16:28:23.106Z,28.90
2018-07-14T16:30:52.148Z,28.90
2018-07-14T16:33:24.485Z,28.80
2018-07-14T16:35:54.301Z,28.80
2018-07-14T16:38:30.316Z,28.70
2018-07-14T16:41:00.641Z,28.50
2018-07-14T16:43:31.961Z,28.50
2018-07-14T16:46:02.291Z,28.40
2018-07-14T16:48:33.634Z,28.30
2018-07-14T16:51:04.579Z,28.10
2018-07-14T16:53:34.706Z,28.10
2018-07-14T16:56:03.542Z,28.00
2018-07-14T16:58:33.410Z,27.90
2018-07-14T17:01:02.497Z,27.80
2018-07-14T17:06:08.528Z,27.70
2018-07-14T17:08:41.634Z,27.60
2018-07-14T17:11:10.885Z,27.50
2018-07-14T17:13:41.888Z,27.50
2018-07-14T17:18:47.719Z,27.40
2018-07-14T17:21:16.467Z,27.30
2018-07-14T17:23:46.297Z,27.30
2018-07-14T17:26:15.512Z,27.30
2018-07-14T17:28:52.409Z,27.30
2018-07-14T17:31:21.635Z,27.20
2018-07-14T17:33:51.524Z,27.10
2018-07-14T17:36:20.348Z,27.10
2018-07-14T17:38:58.281Z,27.10
2018-07-14T17:41:27.455Z,27.00
2018-07-14T17:43:58.078Z,27.00
2018-07-14T17:46:29.041Z,26.90
2018-07-14T17:49:00.955Z,26.80
2018-07-14T17:51:32.206Z,26.80
2018-07-14T17:54:05.940Z,26.70
2018-07-14T17:56:35.675Z,26.70
2018-07-14T17:59:06.714Z,26.60
2018-07-14T18:01:36.212Z,26.60
2018-07-14T18:04:12.648Z,26.60
2018-07-14T18:06:43.438Z,26.50
2018-07-14T18:09:13.302Z,26.40
2018-07-14T18:11:42.291Z,26.40
2018-07-14T18:14:19.375Z,26.30
2018-07-14T18:16:49.661Z,26.30
2018-07-14T18:19:19.168Z,26.20
2018-07-14T18:21:48.595Z,26.20
2018-07-14T18:24:21.804Z,26.10
2018-07-14T18:26:51.170Z,26.10
2018-07-14T18:31:53.444Z,26.00
2018-07-14T18:34:31.201Z,26.00
2018-07-14T18:37:00.630Z,25.90
2018-07-14T18:39:30.358Z,25.80
2018-07-14T18:41:59.168Z,25.80
2018-07-14T18:44:32.038Z,25.70
2018-07-14T18:47:01.226Z,25.70
2018-07-14T18:49:35.043Z,25.60
2018-07-14T18:52:04.340Z,25.60
2018-07-14T18:54:42.653Z,25.40
2018-07-14T18:57:12.671Z,25.40
2018-07-14T18:59:41.538Z,25.40
2018-07-14T19:02:10.299Z,25.30
2018-07-14T19:04:43.848Z,25.30
2018-07-14T19:07:13.257Z,25.20
2018-07-14T19:09:47.293Z,25.20
2018-07-14T19:12:17.531Z,25.10
2018-07-14T19:14:49.234Z,25.10
2018-07-14T19:17:20.176Z,25.00
2018-07-14T19:19:52.464Z,25.00
2018-07-14T19:22:23.693Z,24.90
2018-07-14T19:27:23.638Z,24.80
2018-07-14T19:29:59.115Z,24.70
2018-07-14T19:32:29.462Z,24.60
2018-07-14T19:35:00.279Z,24.50
2018-07-14T19:37:31.474Z,24.50
2018-07-14T19:40:03.101Z,24.50
2018-07-14T19:45:06.476Z,24.40
2018-07-14T19:47:36.354Z,24.30
2018-07-14T19:50:14.129Z,24.30
2018-07-14T19:52:47.961Z,24.20
2018-07-14T19:55:19.088Z,24.10
2018-07-14T19:57:53.112Z,24.00
2018-07-14T20:00:22.978Z,24.00
2018-07-14T20:03:06.406Z,24.00
2018-07-14T20:05:46.425Z,23.90
2018-07-14T20:08:21.531Z,23.90
2018-07-14T20:10:56.299Z,23.80
2018-07-14T20:13:27.299Z,23.80
2018-07-14T20:15:59.555Z,23.70
2018-07-14T20:18:34.249Z,23.70
2018-07-14T20:21:06.785Z,23.50
2018-07-14T20:23:39.309Z,23.50
2018-07-14T20:26:15.793Z,23.50
2018-07-14T20:28:47.168Z,23.40
2018-07-14T20:31:17.510Z,23.30
2018-07-14T20:33:49.771Z,23.30
2018-07-14T20:36:20.463Z,23.20
2018-07-14T20:38:50.298Z,23.10
2018-07-14T20:41:20.119Z,23.10
2018-07-14T20:43:51.800Z,23.00
2018-07-14T20:46:23.198Z,23.00
2018-07-14T20:48:57.780Z,22.90
2018-07-14T20:51:29.297Z,22.90
2018-07-14T20:54:00.682Z,22.90
2018-07-14T20:56:37.829Z,22.80
2018-07-14T20:59:08.987Z,22.80
2018-07-14T21:01:48.165Z,22.70
2018-07-14T21:04:20.924Z,22.70
2018-07-14T21:06:53.184Z,22.60
2018-07-14T21:09:23.789Z,22.60
2018-07-14T21:11:53.690Z,22.50
2018-07-14T21:14:23.414Z,22.40
2018-07-14T21:16:55.769Z,22.40
2018-07-14T21:19:26.903Z,22.40
2018-07-14T21:21:58.193Z,22.40
2018-07-14T21:24:29.736Z,22.40
2018-07-14T21:26:59.107Z,22.30
2018-07-14T21:29:29.624Z,22.30
2018-07-14T21:32:01.607Z,22.30
2018-07-14T21:34:31.238Z,22.30
2018-07-14T21:37:10.161Z,22.20
2018-07-14T21:39:40.383Z,22.20
2018-07-14T21:42:11.173Z,22.20
2018-07-14T21:44:42.877Z,22.10
2018-07-14T21:47:14.247Z,22.10
2018-07-14T21:49:43.415Z,22.10
2018-07-14T21:52:13.165Z,22.00
2018-07-14T21:54:45.091Z,22.00
2018-07-14T21:57:18.892Z,22.00
2018-07-14T21:59:49.397Z,21.90
2018-07-14T22:02:21.079Z,21.90
2018-07-14T22:04:51.092Z,21.80
2018-07-14T22:07:21.493Z,21.80
2018-07-14T22:09:51.162Z,21.80
2018-07-14T22:12:24.858Z,21.80
2018-07-14T22:14:54.290Z,21.70
2018-07-14T22:17:25.871Z,21.70
2018-07-14T22:19:55.058Z,21.70
2018-07-14T22:22:29.936Z,21.60
2018-07-14T22:24:59.946Z,21.60
2018-07-14T22:27:31.247Z,21.60
2018-07-14T22:30:00.259Z,21.50
2018-07-14T22:32:33.996Z,21.50
2018-07-14T22:35:06.991Z,21.50
2018-07-14T22:37:36.465Z,21.40
2018-07-14T22:40:08.604Z,21.40
2018-07-14T22:42:39.051Z,21.40
2018-07-14T22:45:08.586Z,21.30
2018-07-14T22:47:45.927Z,21.30
2018-07-14T22:50:19.214Z,21.30
2018-07-14T22:52:49.320Z,21.20
2018-07-14T22:55:21.088Z,21.20
2018-07-14T22:57:51.100Z,21.20
2018-07-14T23:00:21.296Z,21.10
2018-07-14T23:02:51.274Z,21.10
2018-07-14T23:05:20.301Z,21.10
2018-07-14T23:07:53.318Z,21.00
2018-07-14T23:10:24.640Z,21.00
2018-07-14T23:12:56.690Z,21.00
2018-07-14T23:15:26.171Z,21.00
2018-07-14T23:18:00.158Z,20.90
2018-07-14T23:20:31.116Z,20.90
2018-07-14T23:23:04.138Z,20.90
2018-07-14T23:25:34.603Z,20.80
2018-07-14T23:28:05.579Z,20.80
2018-07-14T23:30:35.148Z,20.80
2018-07-14T23:33:07.169Z,20.70
2018-07-14T23:35:36.352Z,20.70
2018-07-14T23:38:09.231Z,20.60
2018-07-14T23:40:40.044Z,20.60
2018-07-14T23:43:13.232Z,20.60
2018-07-14T23:48:18.201Z,20.60
2018-07-14T23:50:47.871Z,20.60
2018-07-14T23:53:17.629Z,20.40
2018-07-14T23:55:47.606Z,20.40
2018-07-14T23:58:19.977Z,20.40
